sensor_id;sensor_type;location;lat;lon;timestamp;temperature;humidity
20418;DHT22;10368;51.436;6.774;2023-12-20T00:00:30;7.90;99.90
20418;DHT22;10368;51.436;6.774;2023-12-20T00:02:57;7.20;99.90
20418;DHT22;10368;51.436;6.774;2023-12-20T00:05:23;7.90;99.90
20418;DHT22;10368;51.436;6.774;2023-12-20T00:07:50;7.10;99.90
20418;DHT22;10368;51.436;6.774;2023-12-20T00:10:17;7.20;99.90
20418;DHT22;10368;51.436;6.774;2023-12-20T00:12:44;7.10;99.90
20418;DHT22;10368;51.436;6.774;2023-12-20T00:15:11;7.70;99.90
20418;DHT22;10368;51.436;6.774;2023-12-20T00:17:38;7.30;99.90
20418;DHT22;10368;51.436;6.774;2023-12-20T00:20:06;6.90;99.90
20418;DHT22;10368;51.436;6.774;2023-12-20T00:22:34;7.50;99.90
20418;DHT22;10368;51.436;6.774;2023-12-20T00:25:01;7.00;99.90
20418;DHT22;10368;51.436;6.774;2023-12-20T00:27:28;6.80;99.90
20418;DHT22;10368;51.436;6.774;2023-12-20T00:29:56;7.00;99.90
20418;DHT22;10368;51.436;6.774;2023-12-20T00:32:23;7.30;99.90
20418;DHT22;10368;51.436;6.774;2023-12-20T00:34:51;6.90;99.90
20418;DHT22;10368;51.436;6.774;2023-12-20T00:37:18;7.50;99.90
20418;DHT22;10368;51.436;6.774;2023-12-20T00:39:44;7.40;99.90
20418;DHT22;10368;51.436;6.774;2023-12-20T00:42:11;6.90;99.90
20418;DHT22;10368;51.436;6.774;2023-12-20T00:44:38;6.80;99.90
20418;DHT22;10368;51.436;6.774;2023-12-20T00:47:05;6.70;99.90
20418;DHT22;10368;51.436;6.774;2023-12-20T00:49:32;7.40;99.90
20418;DHT22;10368;51.436;6.774;2023-12-20T00:51:59;7.10;99.90
20418;DHT22;10368;51.436;6.774;2023-12-20T00:54:26;6.70;99.90
20418;DHT22;10368;51.436;6.774;2023-12-20T00:56:52;7.40;99.90
20418;DHT22;10368;51.436;6.774;2023-12-20T00:59:19;7.30;99.90
20418;DHT22;10368;51.436;6.774;2023-12-20T01:01:46;7.20;99.90
20418;DHT22;10368;51.436;6.774;2023-12-20T01:04:13;7.20;99.90
20418;DHT22;10368;51.436;6.774;2023-12-20T01:06:43;7.30;99.90
20418;DHT22;10368;51.436;6.774;2023-12-20T01:09:10;6.70;99.90
20418;DHT22;10368;51.436;6.774;2023-12-20T01:11:37;7.30;99.90
20418;DHT22;10368;51.436;6.774;2023-12-20T01:14:04;6.90;99.90
20418;DHT22;10368;51.436;6.774;2023-12-20T01:16:31;7.30;99.90
20418;DHT22;10368;51.436;6.774;2023-12-20T01:18:58;7.30;99.90
20418;DHT22;10368;51.436;6.774;2023-12-20T01:21:25;6.90;99.90
20418;DHT22;10368;51.436;6.774;2023-12-20T01:23:52;6.80;99.90
20418;DHT22;10368;51.436;6.774;2023-12-20T01:26:18;6.70;99.90
20418;DHT22;10368;51.436;6.774;2023-12-20T01:28:45;6.70;99.90
20418;DHT22;10368;51.436;6.774;2023-12-20T01:31:12;7.10;99.90
20418;DHT22;10368;51.436;6.774;2023-12-20T01:33:39;6.60;99.90
20418;DHT22;10368;51.436;6.774;2023-12-20T01:36:06;6.60;99.90
20418;DHT22;10368;51.436;6.774;2023-12-20T01:38:33;7.10;99.90
20418;DHT22;10368;51.436;6.774;2023-12-20T01:41:00;6.70;99.90
20418;DHT22;10368;51.436;6.774;2023-12-20T01:43:27;6.90;99.90
20418;DHT22;10368;51.436;6.774;2023-12-20T01:45:58;6.50;99.90
20418;DHT22;10368;51.436;6.774;2023-12-20T01:48:27;6.40;99.90
20418;DHT22;10368;51.436;6.774;2023-12-20T01:50:54;6.40;99.90
20418;DHT22;10368;51.436;6.774;2023-12-20T01:53:24;6.40;99.90
20418;DHT22;10368;51.436;6.774;2023-12-20T01:55:54;6.30;99.90
20418;DHT22;10368;51.436;6.774;2023-12-20T01:58:22;6.40;99.90
20418;DHT22;10368;51.436;6.774;2023-12-20T02:00:50;6.60;99.90
20418;DHT22;10368;51.436;6.774;2023-12-20T02:03:17;6.20;99.90
20418;DHT22;10368;51.436;6.774;2023-12-20T02:05:45;6.50;99.90
20418;DHT22;10368;51.436;6.774;2023-12-20T02:08:13;6.60;99.90
20418;DHT22;10368;51.436;6.774;2023-12-20T02:10:40;6.50;99.90
20418;DHT22;10368;51.436;6.774;2023-12-20T02:13:07;6.40;99.90
20418;DHT22;10368;51.436;6.774;2023-12-20T02:15:34;6.60;99.90
20418;DHT22;10368;51.436;6.774;2023-12-20T02:18:04;6.20;99.90
20418;DHT22;10368;51.436;6.774;2023-12-20T02:20:31;6.10;99.90
20418;DHT22;10368;51.436;6.774;2023-12-20T02:22:58;6.50;99.90
20418;DHT22;10368;51.436;6.774;2023-12-20T02:25:25;6.10;99.90
20418;DHT22;10368;51.436;6.774;2023-12-20T02:27:52;6.50;99.90
20418;DHT22;10368;51.436;6.774;2023-12-20T02:30:19;6.50;99.90
20418;DHT22;10368;51.436;6.774;2023-12-20T02:32:47;6.40;99.90
20418;DHT22;10368;51.436;6.774;2023-12-20T02:35:14;6.00;99.90
20418;DHT22;10368;51.436;6.774;2023-12-20T02:37:41;6.00;99.90
20418;DHT22;10368;51.436;6.774;2023-12-20T02:40:08;6.00;99.90
20418;DHT22;10368;51.436;6.774;2023-12-20T02:42:35;6.10;99.90
20418;DHT22;10368;51.436;6.774;2023-12-20T02:45:02;5.80;99.90
20418;DHT22;10368;51.436;6.774;2023-12-20T02:47:30;6.00;99.90
20418;DHT22;10368;51.436;6.774;2023-12-20T02:49:57;6.30;99.90
20418;DHT22;10368;51.436;6.774;2023-12-20T02:52:24;5.80;99.90
20418;DHT22;10368;51.436;6.774;2023-12-20T02:54:51;6.20;99.90
20418;DHT22;10368;51.436;6.774;2023-12-20T02:57:18;6.10;99.90
20418;DHT22;10368;51.436;6.774;2023-12-20T02:59:45;5.70;99.90
20418;DHT22;10368;51.436;6.774;2023-12-20T03:02:12;5.70;99.90
20418;DHT22;10368;51.436;6.774;2023-12-20T03:04:39;6.10;99.90
20418;DHT22;10368;51.436;6.774;2023-12-20T03:07:06;6.10;99.90
20418;DHT22;10368;51.436;6.774;2023-12-20T03:09:34;5.70;99.90
20418;DHT22;10368;51.436;6.774;2023-12-20T03:12:21;5.80;99.90
20418;DHT22;10368;51.436;6.774;2023-12-20T03:14:48;6.00;99.90
20418;DHT22;10368;51.436;6.774;2023-12-20T03:17:15;5.80;99.90
20418;DHT22;10368;51.436;6.774;2023-12-20T03:19:42;5.60;99.90
20418;DHT22;10368;51.436;6.774;2023-12-20T03:22:09;6.00;99.90
20418;DHT22;10368;51.436;6.774;2023-12-20T03:24:36;6.00;99.90
20418;DHT22;10368;51.436;6.774;2023-12-20T03:27:03;6.10;99.90
20418;DHT22;10368;51.436;6.774;2023-12-20T03:29:30;5.60;99.90
20418;DHT22;10368;51.436;6.774;2023-12-20T03:31:57;5.70;99.90
20418;DHT22;10368;51.436;6.774;2023-12-20T03:34:23;5.90;99.90
20418;DHT22;10368;51.436;6.774;2023-12-20T03:36:50;5.70;99.90
20418;DHT22;10368;51.436;6.774;2023-12-20T03:39:17;5.60;99.90
20418;DHT22;10368;51.436;6.774;2023-12-20T03:41:44;5.60;99.90
20418;DHT22;10368;51.436;6.774;2023-12-20T03:44:11;5.90;99.90
20418;DHT22;10368;51.436;6.774;2023-12-20T03:46:38;5.90;99.90
20418;DHT22;10368;51.436;6.774;2023-12-20T03:49:05;5.90;99.90
20418;DHT22;10368;51.436;6.774;2023-12-20T03:51:32;5.90;99.90
20418;DHT22;10368;51.436;6.774;2023-12-20T03:53:59;5.80;99.90
20418;DHT22;10368;51.436;6.774;2023-12-20T03:56:25;5.50;99.90
20418;DHT22;10368;51.436;6.774;2023-12-20T03:58:52;5.50;99.90
20418;DHT22;10368;51.436;6.774;2023-12-20T04:01:19;5.50;99.90
20418;DHT22;10368;51.436;6.774;2023-12-20T04:03:46;5.50;99.90
20418;DHT22;10368;51.436;6.774;2023-12-20T04:06:17;5.80;99.90
20418;DHT22;10368;51.436;6.774;2023-12-20T04:08:45;5.70;99.90
20418;DHT22;10368;51.436;6.774;2023-12-20T04:11:12;5.70;99.90
20418;DHT22;10368;51.436;6.774;2023-12-20T04:13:39;5.70;99.90
20418;DHT22;10368;51.436;6.774;2023-12-20T04:16:06;5.50;99.90
20418;DHT22;10368;51.436;6.774;2023-12-20T04:18:33;5.60;99.90
20418;DHT22;10368;51.436;6.774;2023-12-20T04:21:00;5.70;99.90
20418;DHT22;10368;51.436;6.774;2023-12-20T04:23:27;5.70;99.90
20418;DHT22;10368;51.436;6.774;2023-12-20T04:25:54;5.50;99.90
20418;DHT22;10368;51.436;6.774;2023-12-20T04:28:21;5.50;99.90
20418;DHT22;10368;51.436;6.774;2023-12-20T04:30:48;5.70;99.90
20418;DHT22;10368;51.436;6.774;2023-12-20T04:33:15;5.40;99.90
20418;DHT22;10368;51.436;6.774;2023-12-20T04:35:42;5.80;99.90
20418;DHT22;10368;51.436;6.774;2023-12-20T04:38:09;5.70;99.90
20418;DHT22;10368;51.436;6.774;2023-12-20T04:40:36;5.40;99.90
20418;DHT22;10368;51.436;6.774;2023-12-20T04:43:03;5.80;99.90
20418;DHT22;10368;51.436;6.774;2023-12-20T04:45:30;5.40;99.90
20418;DHT22;10368;51.436;6.774;2023-12-20T04:47:57;5.50;99.90
20418;DHT22;10368;51.436;6.774;2023-12-20T04:50:24;5.40;99.90
20418;DHT22;10368;51.436;6.774;2023-12-20T04:52:51;5.60;99.90
20418;DHT22;10368;51.436;6.774;2023-12-20T04:55:18;5.40;99.90
20418;DHT22;10368;51.436;6.774;2023-12-20T04:57:45;5.70;99.90
20418;DHT22;10368;51.436;6.774;2023-12-20T05:00:13;5.30;99.90
20418;DHT22;10368;51.436;6.774;2023-12-20T05:02:42;5.40;99.90
20418;DHT22;10368;51.436;6.774;2023-12-20T05:05:09;5.60;99.90
20418;DHT22;10368;51.436;6.774;2023-12-20T05:07:36;5.60;99.90
20418;DHT22;10368;51.436;6.774;2023-12-20T05:10:03;5.70;99.90
20418;DHT22;10368;51.436;6.774;2023-12-20T05:12:35;5.30;99.90
20418;DHT22;10368;51.436;6.774;2023-12-20T05:15:02;5.40;99.90
20418;DHT22;10368;51.436;6.774;2023-12-20T05:17:30;5.20;99.90
20418;DHT22;10368;51.436;6.774;2023-12-20T05:19:57;5.20;99.90
20418;DHT22;10368;51.436;6.774;2023-12-20T05:22:24;5.20;99.90
20418;DHT22;10368;51.436;6.774;2023-12-20T05:24:51;5.30;99.90
20418;DHT22;10368;51.436;6.774;2023-12-20T05:27:18;5.30;99.90
20418;DHT22;10368;51.436;6.774;2023-12-20T05:29:44;5.60;99.90
20418;DHT22;10368;51.436;6.774;2023-12-20T05:32:11;5.20;99.90
20418;DHT22;10368;51.436;6.774;2023-12-20T05:34:38;5.40;99.90
20418;DHT22;10368;51.436;6.774;2023-12-20T05:37:05;5.30;99.90
20418;DHT22;10368;51.436;6.774;2023-12-20T05:39:32;5.60;99.90
20418;DHT22;10368;51.436;6.774;2023-12-20T05:41:59;5.60;99.90
20418;DHT22;10368;51.436;6.774;2023-12-20T05:44:26;5.40;99.90
20418;DHT22;10368;51.436;6.774;2023-12-20T05:46:53;5.30;99.90
20418;DHT22;10368;51.436;6.774;2023-12-20T05:49:20;5.30;99.90
20418;DHT22;10368;51.436;6.774;2023-12-20T05:51:48;5.60;99.90
20418;DHT22;10368;51.436;6.774;2023-12-20T05:54:15;5.70;99.90
20418;DHT22;10368;51.436;6.774;2023-12-20T05:56:42;5.70;99.90
20418;DHT22;10368;51.436;6.774;2023-12-20T05:59:09;5.40;99.90
20418;DHT22;10368;51.436;6.774;2023-12-20T06:01:36;5.40;99.90
20418;DHT22;10368;51.436;6.774;2023-12-20T06:04:03;5.70;99.90
20418;DHT22;10368;51.436;6.774;2023-12-20T06:06:31;5.40;99.90
20418;DHT22;10368;51.436;6.774;2023-12-20T06:08:58;5.40;99.90
20418;DHT22;10368;51.436;6.774;2023-12-20T06:11:26;5.70;99.90
20418;DHT22;10368;51.436;6.774;2023-12-20T06:13:53;5.40;99.90
20418;DHT22;10368;51.436;6.774;2023-12-20T06:16:20;5.40;99.90
20418;DHT22;10368;51.436;6.774;2023-12-20T06:18:47;5.60;99.90
20418;DHT22;10368;51.436;6.774;2023-12-20T06:21:14;5.60;99.90
20418;DHT22;10368;51.436;6.774;2023-12-20T06:23:41;5.70;99.90
20418;DHT22;10368;51.436;6.774;2023-12-20T06:26:08;5.40;99.90
20418;DHT22;10368;51.436;6.774;2023-12-20T06:28:35;5.50;99.90
20418;DHT22;10368;51.436;6.774;2023-12-20T06:31:05;5.60;99.90
20418;DHT22;10368;51.436;6.774;2023-12-20T06:33:32;5.60;99.90
20418;DHT22;10368;51.436;6.774;2023-12-20T06:35:59;5.90;99.90
20418;DHT22;10368;51.436;6.774;2023-12-20T06:38:25;5.80;99.90
20418;DHT22;10368;51.436;6.774;2023-12-20T06:40:52;5.80;99.90
20418;DHT22;10368;51.436;6.774;2023-12-20T06:43:20;5.80;99.90
20418;DHT22;10368;51.436;6.774;2023-12-20T06:46:07;5.50;99.90
20418;DHT22;10368;51.436;6.774;2023-12-20T06:48:34;5.50;99.90
20418;DHT22;10368;51.436;6.774;2023-12-20T06:51:01;5.60;99.90
20418;DHT22;10368;51.436;6.774;2023-12-20T06:53:28;5.50;99.90
20418;DHT22;10368;51.436;6.774;2023-12-20T06:55:56;5.60;99.90
20418;DHT22;10368;51.436;6.774;2023-12-20T06:58:23;5.60;99.90
20418;DHT22;10368;51.436;6.774;2023-12-20T07:00:50;5.70;99.90
20418;DHT22;10368;51.436;6.774;2023-12-20T07:03:18;6.00;99.90
20418;DHT22;10368;51.436;6.774;2023-12-20T07:05:45;5.60;99.90
20418;DHT22;10368;51.436;6.774;2023-12-20T07:08:12;5.80;99.90
20418;DHT22;10368;51.436;6.774;2023-12-20T07:10:41;5.80;99.90
20418;DHT22;10368;51.436;6.774;2023-12-20T07:13:08;5.70;99.90
20418;DHT22;10368;51.436;6.774;2023-12-20T07:15:35;5.70;99.90
20418;DHT22;10368;51.436;6.774;2023-12-20T07:18:04;5.70;99.90
20418;DHT22;10368;51.436;6.774;2023-12-20T07:20:32;5.80;99.90
20418;DHT22;10368;51.436;6.774;2023-12-20T07:22:59;5.70;99.90
20418;DHT22;10368;51.436;6.774;2023-12-20T07:25:26;6.10;99.90
20418;DHT22;10368;51.436;6.774;2023-12-20T07:27:53;5.80;99.90
20418;DHT22;10368;51.436;6.774;2023-12-20T07:30:20;5.90;99.90
20418;DHT22;10368;51.436;6.774;2023-12-20T07:32:47;6.10;99.90
20418;DHT22;10368;51.436;6.774;2023-12-20T07:35:15;6.00;99.90
20418;DHT22;10368;51.436;6.774;2023-12-20T07:37:43;6.10;99.90
20418;DHT22;10368;51.436;6.774;2023-12-20T07:40:11;6.00;99.90
20418;DHT22;10368;51.436;6.774;2023-12-20T07:42:38;6.00;99.90
20418;DHT22;10368;51.436;6.774;2023-12-20T07:45:06;5.90;99.90
20418;DHT22;10368;51.436;6.774;2023-12-20T07:47:34;5.80;99.90
20418;DHT22;10368;51.436;6.774;2023-12-20T07:50:01;5.80;99.90
20418;DHT22;10368;51.436;6.774;2023-12-20T07:52:31;6.10;99.90
20418;DHT22;10368;51.436;6.774;2023-12-20T07:54:58;5.80;99.90
20418;DHT22;10368;51.436;6.774;2023-12-20T07:57:29;5.80;99.90
20418;DHT22;10368;51.436;6.774;2023-12-20T07:59:56;6.10;99.90
20418;DHT22;10368;51.436;6.774;2023-12-20T08:02:23;6.10;99.90
20418;DHT22;10368;51.436;6.774;2023-12-20T08:04:50;5.90;99.90
20418;DHT22;10368;51.436;6.774;2023-12-20T08:07:17;6.00;99.90
20418;DHT22;10368;51.436;6.774;2023-12-20T08:09:44;5.90;99.90
20418;DHT22;10368;51.436;6.774;2023-12-20T08:12:11;5.90;99.90
20418;DHT22;10368;51.436;6.774;2023-12-20T08:14:38;5.90;99.90
20418;DHT22;10368;51.436;6.774;2023-12-20T08:17:05;5.90;99.90
20418;DHT22;10368;51.436;6.774;2023-12-20T08:19:32;6.00;99.90
20418;DHT22;10368;51.436;6.774;2023-12-20T08:21:59;6.20;99.90
20418;DHT22;10368;51.436;6.774;2023-12-20T08:24:26;6.20;99.90
20418;DHT22;10368;51.436;6.774;2023-12-20T08:26:53;6.00;99.90
20418;DHT22;10368;51.436;6.774;2023-12-20T08:29:20;6.10;99.90
20418;DHT22;10368;51.436;6.774;2023-12-20T08:31:52;6.00;99.90
20418;DHT22;10368;51.436;6.774;2023-12-20T08:34:19;5.90;99.90
20418;DHT22;10368;51.436;6.774;2023-12-20T08:36:46;5.90;99.90
20418;DHT22;10368;51.436;6.774;2023-12-20T08:39:13;6.00;99.90
20418;DHT22;10368;51.436;6.774;2023-12-20T08:41:40;6.00;99.90
20418;DHT22;10368;51.436;6.774;2023-12-20T08:44:07;6.00;99.90
20418;DHT22;10368;51.436;6.774;2023-12-20T08:46:34;6.00;99.90
20418;DHT22;10368;51.436;6.774;2023-12-20T08:49:02;6.00;99.90
20418;DHT22;10368;51.436;6.774;2023-12-20T08:51:29;6.00;99.90
20418;DHT22;10368;51.436;6.774;2023-12-20T08:53:56;6.00;99.90
20418;DHT22;10368;51.436;6.774;2023-12-20T08:56:23;6.00;99.90
20418;DHT22;10368;51.436;6.774;2023-12-20T08:58:50;6.00;99.90
20418;DHT22;10368;51.436;6.774;2023-12-20T09:01:16;6.10;99.90
20418;DHT22;10368;51.436;6.774;2023-12-20T09:03:44;6.30;99.90
20418;DHT22;10368;51.436;6.774;2023-12-20T09:06:11;6.40;99.90
20418;DHT22;10368;51.436;6.774;2023-12-20T09:08:37;6.50;99.90
20418;DHT22;10368;51.436;6.774;2023-12-20T09:11:04;6.50;99.90
20418;DHT22;10368;51.436;6.774;2023-12-20T09:13:32;6.50;99.90
20418;DHT22;10368;51.436;6.774;2023-12-20T09:15:59;6.50;99.90
20418;DHT22;10368;51.436;6.774;2023-12-20T09:18:26;6.50;99.90
20418;DHT22;10368;51.436;6.774;2023-12-20T09:20:53;6.50;99.90
20418;DHT22;10368;51.436;6.774;2023-12-20T09:23:20;6.50;99.90
20418;DHT22;10368;51.436;6.774;2023-12-20T09:25:47;6.50;99.90
20418;DHT22;10368;51.436;6.774;2023-12-20T09:28:14;6.50;99.90
20418;DHT22;10368;51.436;6.774;2023-12-20T09:30:41;6.50;99.90
20418;DHT22;10368;51.436;6.774;2023-12-20T09:33:09;6.50;99.90
20418;DHT22;10368;51.436;6.774;2023-12-20T09:35:36;6.50;99.90
20418;DHT22;10368;51.436;6.774;2023-12-20T09:38:03;6.50;99.90
20418;DHT22;10368;51.436;6.774;2023-12-20T09:40:32;6.60;99.90
20418;DHT22;10368;51.436;6.774;2023-12-20T09:43:04;6.60;99.90
20418;DHT22;10368;51.436;6.774;2023-12-20T09:45:35;6.70;99.90
20418;DHT22;10368;51.436;6.774;2023-12-20T09:48:03;6.70;99.90
20418;DHT22;10368;51.436;6.774;2023-12-20T09:50:31;6.80;99.90
20418;DHT22;10368;51.436;6.774;2023-12-20T09:53:01;6.80;99.90
20418;DHT22;10368;51.436;6.774;2023-12-20T09:55:30;6.80;99.90
20418;DHT22;10368;51.436;6.774;2023-12-20T09:57:59;6.80;99.90
20418;DHT22;10368;51.436;6.774;2023-12-20T10:00:27;6.80;99.90
20418;DHT22;10368;51.436;6.774;2023-12-20T10:02:58;6.80;99.90
20418;DHT22;10368;51.436;6.774;2023-12-20T10:05:31;6.90;99.90
20418;DHT22;10368;51.436;6.774;2023-12-20T10:08:00;6.90;99.90
20418;DHT22;10368;51.436;6.774;2023-12-20T10:10:28;6.90;99.90
20418;DHT22;10368;51.436;6.774;2023-12-20T10:13:12;6.90;99.90
20418;DHT22;10368;51.436;6.774;2023-12-20T10:15:39;6.90;99.90
20418;DHT22;10368;51.436;6.774;2023-12-20T10:18:08;6.90;99.90
20418;DHT22;10368;51.436;6.774;2023-12-20T10:20:36;6.90;99.90
20418;DHT22;10368;51.436;6.774;2023-12-20T10:23:03;6.90;99.90
20418;DHT22;10368;51.436;6.774;2023-12-20T10:25:30;7.00;99.90
20418;DHT22;10368;51.436;6.774;2023-12-20T10:28:15;7.00;99.90
20418;DHT22;10368;51.436;6.774;2023-12-20T10:30:46;7.00;99.90
20418;DHT22;10368;51.436;6.774;2023-12-20T10:33:13;7.00;99.90
20418;DHT22;10368;51.436;6.774;2023-12-20T10:35:40;7.10;99.90
20418;DHT22;10368;51.436;6.774;2023-12-20T10:38:13;7.10;99.90
20418;DHT22;10368;51.436;6.774;2023-12-20T10:40:41;7.10;99.90
20418;DHT22;10368;51.436;6.774;2023-12-20T10:43:09;7.10;99.90
20418;DHT22;10368;51.436;6.774;2023-12-20T10:45:37;7.10;99.90
20418;DHT22;10368;51.436;6.774;2023-12-20T10:48:04;7.10;99.90
20418;DHT22;10368;51.436;6.774;2023-12-20T10:50:32;7.10;99.90
20418;DHT22;10368;51.436;6.774;2023-12-20T10:52:59;7.10;99.90
20418;DHT22;10368;51.436;6.774;2023-12-20T10:55:27;7.10;99.90
20418;DHT22;10368;51.436;6.774;2023-12-20T10:58:00;7.20;99.90
20418;DHT22;10368;51.436;6.774;2023-12-20T11:00:29;7.20;99.90
20418;DHT22;10368;51.436;6.774;2023-12-20T11:03:00;7.20;99.90
20418;DHT22;10368;51.436;6.774;2023-12-20T11:05:57;7.20;99.90
20418;DHT22;10368;51.436;6.774;2023-12-20T11:08:47;7.30;99.90
20418;DHT22;10368;51.436;6.774;2023-12-20T11:11:34;7.30;99.90
20418;DHT22;10368;51.436;6.774;2023-12-20T11:14:16;7.30;99.90
20418;DHT22;10368;51.436;6.774;2023-12-20T11:16:44;7.20;99.90
20418;DHT22;10368;51.436;6.774;2023-12-20T11:19:20;7.30;99.90
20418;DHT22;10368;51.436;6.774;2023-12-20T11:21:47;7.30;99.90
20418;DHT22;10368;51.436;6.774;2023-12-20T11:24:15;7.30;99.90
20418;DHT22;10368;51.436;6.774;2023-12-20T11:26:47;7.30;99.90
20418;DHT22;10368;51.436;6.774;2023-12-20T11:29:29;7.40;99.90
20418;DHT22;10368;51.436;6.774;2023-12-20T11:31:57;7.40;99.90
20418;DHT22;10368;51.436;6.774;2023-12-20T11:34:28;7.40;99.90
20418;DHT22;10368;51.436;6.774;2023-12-20T11:36:58;7.40;99.90
20418;DHT22;10368;51.436;6.774;2023-12-20T11:39:28;7.40;99.90
20418;DHT22;10368;51.436;6.774;2023-12-20T11:42:04;7.40;99.90
20418;DHT22;10368;51.436;6.774;2023-12-20T11:44:31;7.40;99.90
20418;DHT22;10368;51.436;6.774;2023-12-20T11:47:00;7.40;99.90
20418;DHT22;10368;51.436;6.774;2023-12-20T11:49:28;7.40;99.90
20418;DHT22;10368;51.436;6.774;2023-12-20T11:51:58;7.40;99.90
20418;DHT22;10368;51.436;6.774;2023-12-20T11:54:27;7.40;99.90
20418;DHT22;10368;51.436;6.774;2023-12-20T11:56:53;7.30;99.90
20418;DHT22;10368;51.436;6.774;2023-12-20T11:59:20;7.30;99.90
20418;DHT22;10368;51.436;6.774;2023-12-20T12:01:50;7.30;99.90
20418;DHT22;10368;51.436;6.774;2023-12-20T12:04:18;7.20;99.90
20418;DHT22;10368;51.436;6.774;2023-12-20T12:06:46;7.30;99.90
20418;DHT22;10368;51.436;6.774;2023-12-20T12:09:13;7.30;99.90
20418;DHT22;10368;51.436;6.774;2023-12-20T12:11:40;7.30;99.90
20418;DHT22;10368;51.436;6.774;2023-12-20T12:14:08;7.30;99.90
20418;DHT22;10368;51.436;6.774;2023-12-20T12:16:35;7.30;99.90
20418;DHT22;10368;51.436;6.774;2023-12-20T12:19:02;7.30;99.90
20418;DHT22;10368;51.436;6.774;2023-12-20T12:21:28;7.30;99.90
20418;DHT22;10368;51.436;6.774;2023-12-20T12:24:07;7.30;99.90
20418;DHT22;10368;51.436;6.774;2023-12-20T12:26:34;7.30;99.90
20418;DHT22;10368;51.436;6.774;2023-12-20T12:29:01;7.30;99.90
20418;DHT22;10368;51.436;6.774;2023-12-20T12:31:28;7.30;99.90
20418;DHT22;10368;51.436;6.774;2023-12-20T12:33:56;7.30;99.90
20418;DHT22;10368;51.436;6.774;2023-12-20T12:36:23;7.30;99.90
20418;DHT22;10368;51.436;6.774;2023-12-20T12:38:50;7.30;99.90
20418;DHT22;10368;51.436;6.774;2023-12-20T12:41:17;7.30;99.90
20418;DHT22;10368;51.436;6.774;2023-12-20T12:43:44;7.30;99.90
20418;DHT22;10368;51.436;6.774;2023-12-20T12:46:11;7.30;99.90
20418;DHT22;10368;51.436;6.774;2023-12-20T12:48:38;7.30;99.90
20418;DHT22;10368;51.436;6.774;2023-12-20T12:51:08;7.30;99.90
20418;DHT22;10368;51.436;6.774;2023-12-20T12:53:39;7.30;99.90
20418;DHT22;10368;51.436;6.774;2023-12-20T12:56:07;7.30;99.90
20418;DHT22;10368;51.436;6.774;2023-12-20T12:58:34;7.30;99.90
20418;DHT22;10368;51.436;6.774;2023-12-20T13:01:02;7.30;99.90
20418;DHT22;10368;51.436;6.774;2023-12-20T13:03:30;7.30;99.90
20418;DHT22;10368;51.436;6.774;2023-12-20T13:05:57;7.30;99.90
20418;DHT22;10368;51.436;6.774;2023-12-20T13:08:24;7.30;99.90
20418;DHT22;10368;51.436;6.774;2023-12-20T13:10:51;7.20;99.90
20418;DHT22;10368;51.436;6.774;2023-12-20T13:13:18;7.30;99.90
20418;DHT22;10368;51.436;6.774;2023-12-20T13:15:45;7.20;99.90
20418;DHT22;10368;51.436;6.774;2023-12-20T13:18:17;7.20;99.90
20418;DHT22;10368;51.436;6.774;2023-12-20T13:20:49;7.10;99.90
20418;DHT22;10368;51.436;6.774;2023-12-20T13:23:16;7.00;99.90
20418;DHT22;10368;51.436;6.774;2023-12-20T13:25:45;6.90;99.90
20418;DHT22;10368;51.436;6.774;2023-12-20T13:28:14;6.90;99.90
20418;DHT22;10368;51.436;6.774;2023-12-20T13:30:41;6.90;99.90
20418;DHT22;10368;51.436;6.774;2023-12-20T13:33:09;6.90;99.90
20418;DHT22;10368;51.436;6.774;2023-12-20T13:35:36;6.80;99.90
20418;DHT22;10368;51.436;6.774;2023-12-20T13:38:03;6.80;99.90
20418;DHT22;10368;51.436;6.774;2023-12-20T13:40:30;6.90;99.90
20418;DHT22;10368;51.436;6.774;2023-12-20T13:42:57;6.90;99.90
20418;DHT22;10368;51.436;6.774;2023-12-20T13:45:24;6.90;99.90
20418;DHT22;10368;51.436;6.774;2023-12-20T13:47:52;6.90;99.90
20418;DHT22;10368;51.436;6.774;2023-12-20T13:50:19;6.90;99.90
20418;DHT22;10368;51.436;6.774;2023-12-20T13:52:46;6.90;99.90
20418;DHT22;10368;51.436;6.774;2023-12-20T13:55:13;6.90;99.90
20418;DHT22;10368;51.436;6.774;2023-12-20T13:57:40;6.90;99.90
20418;DHT22;10368;51.436;6.774;2023-12-20T14:00:21;6.90;99.90
20418;DHT22;10368;51.436;6.774;2023-12-20T14:02:49;7.00;99.90
20418;DHT22;10368;51.436;6.774;2023-12-20T14:05:17;7.00;99.90
20418;DHT22;10368;51.436;6.774;2023-12-20T14:07:48;6.90;99.90
20418;DHT22;10368;51.436;6.774;2023-12-20T14:10:16;6.90;99.90
20418;DHT22;10368;51.436;6.774;2023-12-20T14:12:43;6.90;99.90
20418;DHT22;10368;51.436;6.774;2023-12-20T14:15:11;6.90;99.90
20418;DHT22;10368;51.436;6.774;2023-12-20T14:17:40;6.90;99.90
20418;DHT22;10368;51.436;6.774;2023-12-20T14:20:11;6.90;99.90
20418;DHT22;10368;51.436;6.774;2023-12-20T14:22:41;6.90;99.90
20418;DHT22;10368;51.436;6.774;2023-12-20T14:25:11;7.00;99.90
20418;DHT22;10368;51.436;6.774;2023-12-20T14:27:41;7.00;99.90
20418;DHT22;10368;51.436;6.774;2023-12-20T14:30:11;7.00;99.90
20418;DHT22;10368;51.436;6.774;2023-12-20T14:32:42;7.00;99.90
20418;DHT22;10368;51.436;6.774;2023-12-20T14:35:12;7.10;99.90
20418;DHT22;10368;51.436;6.774;2023-12-20T14:37:41;7.10;99.90
20418;DHT22;10368;51.436;6.774;2023-12-20T14:40:08;7.10;99.90
20418;DHT22;10368;51.436;6.774;2023-12-20T14:42:45;7.20;99.90
20418;DHT22;10368;51.436;6.774;2023-12-20T14:45:12;7.20;99.90
20418;DHT22;10368;51.436;6.774;2023-12-20T14:47:43;7.20;99.90
20418;DHT22;10368;51.436;6.774;2023-12-20T14:50:11;7.20;99.90
20418;DHT22;10368;51.436;6.774;2023-12-20T14:52:44;7.20;99.90
20418;DHT22;10368;51.436;6.774;2023-12-20T14:55:15;7.20;99.90
20418;DHT22;10368;51.436;6.774;2023-12-20T14:57:44;7.20;99.90
20418;DHT22;10368;51.436;6.774;2023-12-20T15:00:12;7.30;99.90
20418;DHT22;10368;51.436;6.774;2023-12-20T15:02:44;7.30;99.90
20418;DHT22;10368;51.436;6.774;2023-12-20T15:05:11;7.30;99.90
20418;DHT22;10368;51.436;6.774;2023-12-20T15:07:38;7.30;99.90
20418;DHT22;10368;51.436;6.774;2023-12-20T15:10:07;7.30;99.90
20418;DHT22;10368;51.436;6.774;2023-12-20T15:12:34;7.40;99.90
20418;DHT22;10368;51.436;6.774;2023-12-20T15:15:05;7.40;99.90
20418;DHT22;10368;51.436;6.774;2023-12-20T15:17:33;7.40;99.90
20418;DHT22;10368;51.436;6.774;2023-12-20T15:20:02;7.50;99.90
20418;DHT22;10368;51.436;6.774;2023-12-20T15:22:31;7.50;99.90
20418;DHT22;10368;51.436;6.774;2023-12-20T15:25:00;7.50;99.90
20418;DHT22;10368;51.436;6.774;2023-12-20T15:27:30;7.50;99.90
20418;DHT22;10368;51.436;6.774;2023-12-20T15:29:57;7.50;99.90
20418;DHT22;10368;51.436;6.774;2023-12-20T15:32:24;7.50;99.90
20418;DHT22;10368;51.436;6.774;2023-12-20T15:34:50;7.50;99.90
20418;DHT22;10368;51.436;6.774;2023-12-20T15:37:19;7.50;99.90
20418;DHT22;10368;51.436;6.774;2023-12-20T15:39:46;7.50;99.90
20418;DHT22;10368;51.436;6.774;2023-12-20T15:42:13;7.50;99.90
20418;DHT22;10368;51.436;6.774;2023-12-20T15:44:40;7.60;99.90
20418;DHT22;10368;51.436;6.774;2023-12-20T15:47:07;7.50;99.90
20418;DHT22;10368;51.436;6.774;2023-12-20T15:49:33;7.60;99.90